createdAt,value
2019-03-25T00:01:20.896Z,3.30
2019-03-25T00:03:53.627Z,3.40
2019-03-25T00:06:22.312Z,3.40
2019-03-25T00:09:04.481Z,3.30
2019-03-25T00:11:21.444Z,3.37
2019-03-25T00:13:50.307Z,3.37
2019-03-25T00:16:18.911Z,3.77
2019-03-25T00:18:47.731Z,3.33
2019-03-25T00:21:16.458Z,3.70
2019-03-25T00:23:45.198Z,2.97
2019-03-25T00:26:13.953Z,3.40
2019-03-25T00:28:42.640Z,3.53
2019-03-25T00:31:11.374Z,3.40
2019-03-25T00:33:39.937Z,3.60
2019-03-25T00:36:08.641Z,3.13
2019-03-25T00:38:37.299Z,3.50
2019-03-25T00:41:06.004Z,3.40
2019-03-25T00:43:34.781Z,3.30
2019-03-25T00:46:03.569Z,3.40
2019-03-25T00:48:35.238Z,3.50
2019-03-25T00:51:03.918Z,3.03
2019-03-25T00:53:33.723Z,3.27
2019-03-25T00:56:02.376Z,3.40
2019-03-25T00:58:31.023Z,3.50
2019-03-25T01:01:04.222Z,3.30
2019-03-25T01:03:32.885Z,3.77
2019-03-25T01:06:01.509Z,3.60
2019-03-25T01:08:30.184Z,3.50
2019-03-25T01:10:59.019Z,3.57
2019-03-25T01:13:27.782Z,3.50
2019-03-25T01:15:56.358Z,3.57
2019-03-25T01:18:25.122Z,3.20
2019-03-25T01:20:53.875Z,3.73
2019-03-25T01:23:22.505Z,3.27
2019-03-25T01:25:51.201Z,3.50
2019-03-25T01:28:19.876Z,3.63
2019-03-25T01:30:48.547Z,3.17
2019-03-25T01:33:17.346Z,3.60
2019-03-25T01:35:46.014Z,3.83
2019-03-25T01:38:19.032Z,3.47
2019-03-25T01:40:47.704Z,3.50
2019-03-25T01:43:16.304Z,3.50
2019-03-25T01:45:47.400Z,3.37
2019-03-25T01:48:16.074Z,3.60
2019-03-25T01:50:44.824Z,3.60
2019-03-25T01:53:13.502Z,3.90
2019-03-25T01:55:42.138Z,3.73
2019-03-25T01:58:10.815Z,3.70
2019-03-25T02:00:39.624Z,3.60
2019-03-25T02:03:08.383Z,4.20
2019-03-25T02:05:37.071Z,3.90
2019-03-25T02:08:05.787Z,3.77
2019-03-25T02:10:34.455Z,3.80
2019-03-25T02:13:03.080Z,3.93
2019-03-25T02:15:31.852Z,4.50
2019-03-25T02:18:00.655Z,3.67
2019-03-25T02:20:29.529Z,4.17
2019-03-25T02:22:58.256Z,4.47
2019-03-25T02:25:27.074Z,3.77
2019-03-25T02:27:55.762Z,4.00
2019-03-25T02:30:24.563Z,4.40
2019-03-25T02:32:53.303Z,4.43
2019-03-25T02:35:21.931Z,3.97
2019-03-25T02:37:50.724Z,3.80
2019-03-25T02:40:19.466Z,3.90
2019-03-25T02:42:48.198Z,4.53
2019-03-25T02:45:16.823Z,3.67
2019-03-25T02:47:45.424Z,4.23
2019-03-25T02:50:14.242Z,3.53
2019-03-25T02:52:42.812Z,3.60
2019-03-25T02:55:11.650Z,4.37
2019-03-25T02:57:40.281Z,3.93
2019-03-25T03:00:11.185Z,3.90
2019-03-25T03:02:39.984Z,3.53
2019-03-25T03:05:08.705Z,3.87
2019-03-25T03:07:37.514Z,4.03
2019-03-25T03:10:07.252Z,4.10
2019-03-25T03:12:36.429Z,4.10
2019-03-25T03:15:07.037Z,3.77
2019-03-25T03:17:35.755Z,4.00
2019-03-25T03:20:06.983Z,4.30
2019-03-25T03:22:35.678Z,3.63
2019-03-25T03:25:08.987Z,3.87
2019-03-25T03:27:37.710Z,4.33
2019-03-25T03:30:07.188Z,4.10
2019-03-25T03:32:35.932Z,4.50
2019-03-25T03:35:08.083Z,4.53
2019-03-25T03:37:36.648Z,4.30
2019-03-25T03:40:06.965Z,4.20
2019-03-25T03:42:35.528Z,3.77
2019-03-25T03:45:05.688Z,3.70
2019-03-25T03:47:34.386Z,4.40
2019-03-25T03:50:03.811Z,4.40
2019-03-25T03:52:32.584Z,4.37
2019-03-25T03:55:01.639Z,4.20
2019-03-25T03:57:30.371Z,3.97
2019-03-25T03:59:59.137Z,4.00
2019-03-25T04:02:27.851Z,4.13
2019-03-25T04:04:56.632Z,4.20
2019-03-25T04:07:25.280Z,4.00
2019-03-25T04:09:54.069Z,4.20
2019-03-25T04:12:22.780Z,4.50
2019-03-25T04:14:51.641Z,4.57
2019-03-25T04:17:21.760Z,4.13
2019-03-25T04:19:50.425Z,4.37
2019-03-25T04:22:23.596Z,4.30
2019-03-25T04:24:52.197Z,4.50
2019-03-25T04:27:22.555Z,4.33
2019-03-25T04:29:51.295Z,3.93
2019-03-25T04:32:19.989Z,4.50
2019-03-25T04:34:48.654Z,4.50
2019-03-25T04:37:19.347Z,4.60
2019-03-25T04:39:47.662Z,4.10
2019-03-25T04:42:16.359Z,4.10
2019-03-25T04:44:45.025Z,4.33
2019-03-25T04:47:13.698Z,3.90
2019-03-25T04:49:42.407Z,3.90
2019-03-25T04:52:12.610Z,4.60
2019-03-25T04:54:41.467Z,3.60
2019-03-25T04:57:10.039Z,4.50
2019-03-25T04:59:38.714Z,3.93
2019-03-25T05:02:07.390Z,3.90
2019-03-25T05:04:36.167Z,4.10
2019-03-25T05:07:04.837Z,4.20
2019-03-25T05:09:33.496Z,3.80
2019-03-25T05:12:02.150Z,4.47
2019-03-25T05:14:30.705Z,3.83
2019-03-25T05:16:59.519Z,3.80
2019-03-25T05:19:28.206Z,3.30
2019-03-25T05:21:56.858Z,4.03
2019-03-25T05:24:25.525Z,4.23
2019-03-25T05:26:54.200Z,3.60
2019-03-25T05:29:25.415Z,3.83
2019-03-25T05:31:54.014Z,4.33
2019-03-25T05:34:22.955Z,4.40
2019-03-25T05:36:51.772Z,5.63
2019-03-25T05:39:20.339Z,5.87
2019-03-25T05:41:49.039Z,4.63
2019-03-25T05:44:17.716Z,4.50
2019-03-25T05:46:46.422Z,4.50
2019-03-25T05:49:15.111Z,5.37
2019-03-25T05:51:43.918Z,6.10
2019-03-25T05:54:12.688Z,6.50
2019-03-25T05:56:41.413Z,7.50
2019-03-25T05:59:10.150Z,6.07
2019-03-25T06:01:38.802Z,6.77
2019-03-25T06:04:07.408Z,6.60
2019-03-25T06:06:36.245Z,7.23
2019-03-25T06:09:09.406Z,9.70
2019-03-25T06:11:38.136Z,8.83
2019-03-25T06:14:06.849Z,10.68
2019-03-25T06:16:35.617Z,9.60
2019-03-25T06:19:04.641Z,9.50
2019-03-25T06:21:33.336Z,8.67
2019-03-25T06:24:02.113Z,8.03
2019-03-25T06:26:30.838Z,7.03
2019-03-25T06:28:59.549Z,6.03
2019-03-25T06:31:28.301Z,5.80
2019-03-25T06:33:56.994Z,6.23
2019-03-25T06:36:25.653Z,5.60
2019-03-25T06:38:54.285Z,5.10
2019-03-25T06:41:23.015Z,4.97
2019-03-25T06:43:51.765Z,5.60
2019-03-25T06:46:22.300Z,5.40
2019-03-25T06:48:50.746Z,4.77
2019-03-25T06:51:19.503Z,4.93
2019-03-25T06:53:48.181Z,5.00
2019-03-25T06:56:17.201Z,4.73
2019-03-25T06:58:45.973Z,4.00
2019-03-25T07:01:14.805Z,4.33
2019-03-25T07:03:43.507Z,5.00
2019-03-25T07:06:12.198Z,4.40
2019-03-25T07:08:40.905Z,3.50
2019-03-25T07:11:09.850Z,4.20
2019-03-25T07:13:38.910Z,4.70
2019-03-25T07:16:09.568Z,4.00
2019-03-25T07:18:38.325Z,3.90
2019-03-25T07:21:07.047Z,3.77
2019-03-25T07:23:35.788Z,4.43
2019-03-25T07:26:04.559Z,4.00
2019-03-25T07:28:33.231Z,4.33
2019-03-25T07:31:02.084Z,4.30
2019-03-25T07:33:30.746Z,4.40
2019-03-25T07:35:59.817Z,3.70
2019-03-25T07:38:28.437Z,3.83
2019-03-25T07:40:57.177Z,3.93
2019-03-25T07:43:27.117Z,4.10
2019-03-25T07:45:56.070Z,4.13
2019-03-25T07:48:29.230Z,3.43
2019-03-25T07:50:58.102Z,3.50
2019-03-25T07:53:26.748Z,3.60
2019-03-25T07:55:55.729Z,3.50
2019-03-25T07:58:24.758Z,3.30
2019-03-25T08:00:53.396Z,3.37
2019-03-25T08:03:22.129Z,3.20
2019-03-25T08:05:50.946Z,3.30
2019-03-25T08:08:19.783Z,3.33
2019-03-25T08:10:48.747Z,3.87
2019-03-25T08:13:17.822Z,3.50
2019-03-25T08:15:46.507Z,3.43
2019-03-25T08:18:34.699Z,3.40
2019-03-25T08:21:03.562Z,3.50
2019-03-25T08:23:32.332Z,4.10
2019-03-25T08:26:01.184Z,3.20
2019-03-25T08:28:29.986Z,3.57
2019-03-25T08:30:58.819Z,3.50
2019-03-25T08:33:27.997Z,3.90
2019-03-25T08:35:56.913Z,3.20
2019-03-25T08:38:25.877Z,3.40
2019-03-25T08:40:54.665Z,3.30
2019-03-25T08:43:23.490Z,3.10
2019-03-25T08:45:52.459Z,3.00
2019-03-25T08:48:21.328Z,3.07
2019-03-25T08:50:50.061Z,3.47
2019-03-25T08:53:18.873Z,3.17
2019-03-25T08:55:47.728Z,2.67
2019-03-25T08:58:16.625Z,3.10
2019-03-25T09:00:45.356Z,2.67
2019-03-25T09:03:14.284Z,2.83
2019-03-25T09:05:43.196Z,2.90
2019-03-25T09:08:12.858Z,2.80
2019-03-25T09:10:43.591Z,2.83
2019-03-25T09:13:12.728Z,2.73
2019-03-25T09:15:42.675Z,3.03
2019-03-25T09:18:11.647Z,2.70
2019-03-25T09:20:41.737Z,2.90
2019-03-25T09:23:10.684Z,2.90
2019-03-25T09:25:39.461Z,3.63
2019-03-25T09:28:08.420Z,3.23
2019-03-25T09:30:56.827Z,2.97
2019-03-25T09:33:25.720Z,3.13
2019-03-25T09:35:54.432Z,3.33
2019-03-25T09:38:42.756Z,2.80
2019-03-25T09:41:11.674Z,2.80
2019-03-25T09:43:40.712Z,2.87
2019-03-25T09:46:09.599Z,2.90
2019-03-25T09:48:38.386Z,2.80
2019-03-25T09:51:07.300Z,2.70
2019-03-25T09:53:36.141Z,2.90
2019-03-25T09:56:05.160Z,3.20
2019-03-25T09:58:36.495Z,3.27
2019-03-25T10:01:04.710Z,2.97
2019-03-25T10:03:33.493Z,2.80
2019-03-25T10:06:02.511Z,2.90
2019-03-25T10:08:31.371Z,3.07
2019-03-25T10:11:00.315Z,3.00
2019-03-25T10:13:29.119Z,3.47
2019-03-25T10:15:59.350Z,3.10
2019-03-25T10:18:28.251Z,3.17
2019-03-25T10:20:57.058Z,3.20
2019-03-25T10:23:25.941Z,3.40
2019-03-25T10:25:54.717Z,2.60
2019-03-25T10:28:23.540Z,2.67
2019-03-25T10:30:52.585Z,2.53
2019-03-25T10:33:21.477Z,2.80
2019-03-25T10:35:50.392Z,2.50
2019-03-25T10:38:20.019Z,2.97
2019-03-25T10:40:49.015Z,5.10
2019-03-25T10:43:18.070Z,3.03
2019-03-25T10:45:46.970Z,2.67
2019-03-25T10:48:15.867Z,2.40
2019-03-25T10:50:44.631Z,2.30
2019-03-25T10:53:13.523Z,1.80
2019-03-25T10:55:42.498Z,1.97
2019-03-25T10:58:11.378Z,2.40
2019-03-25T11:00:40.635Z,2.83
2019-03-25T11:03:09.512Z,2.37
2019-03-25T11:05:44.275Z,2.33
2019-03-25T11:08:13.144Z,2.03
2019-03-25T11:10:42.093Z,2.43
2019-03-25T11:13:10.956Z,2.27
2019-03-25T11:15:39.821Z,2.17
2019-03-25T11:18:09.675Z,2.47
2019-03-25T11:20:38.747Z,2.00
2019-03-25T11:23:07.938Z,2.40
2019-03-25T11:25:36.711Z,3.10
2019-03-25T11:28:05.850Z,2.20
2019-03-25T11:30:49.619Z,2.20
2019-03-25T11:33:21.414Z,2.10
2019-03-25T11:35:51.643Z,1.80
2019-03-25T11:38:21.013Z,2.30
2019-03-25T11:40:49.930Z,2.37
2019-03-25T11:43:18.891Z,2.57
2019-03-25T11:45:47.719Z,1.87
2019-03-25T11:48:16.516Z,2.53
2019-03-25T11:50:45.290Z,2.20
2019-03-25T11:53:14.333Z,2.20
2019-03-25T11:55:49.135Z,2.50
2019-03-25T11:58:20.414Z,1.93
2019-03-25T12:00:49.214Z,2.20
2019-03-25T12:03:17.984Z,1.87
2019-03-25T12:05:46.951Z,2.20
2019-03-25T12:08:15.795Z,2.30
2019-03-25T12:10:44.594Z,2.40
2019-03-25T12:13:13.554Z,1.80
2019-03-25T12:15:42.540Z,2.10
2019-03-25T12:18:11.372Z,2.90
2019-03-25T12:20:40.264Z,2.30
2019-03-25T12:23:09.061Z,2.53
2019-03-25T12:25:37.762Z,2.03
2019-03-25T12:28:06.800Z,1.90
2019-03-25T12:30:35.856Z,1.83
2019-03-25T12:33:04.940Z,1.70
2019-03-25T12:35:33.874Z,1.63
2019-03-25T12:38:02.722Z,1.93
2019-03-25T12:40:31.558Z,1.70
2019-03-25T12:43:00.449Z,1.93
2019-03-25T12:45:29.232Z,1.70
2019-03-25T12:47:58.154Z,1.90
2019-03-25T12:50:27.046Z,1.60
2019-03-25T12:52:55.858Z,1.80
2019-03-25T12:55:24.612Z,1.50
2019-03-25T12:57:53.536Z,3.00
2019-03-25T13:00:37.543Z,1.73
2019-03-25T13:03:06.627Z,1.40
2019-03-25T13:05:35.670Z,1.57
2019-03-25T13:08:04.536Z,1.50
2019-03-25T13:10:33.272Z,2.00
2019-03-25T13:13:02.234Z,1.90
2019-03-25T13:15:31.003Z,2.13
2019-03-25T13:17:59.990Z,2.03
2019-03-25T13:20:28.675Z,1.80
2019-03-25T13:22:57.505Z,1.60
2019-03-25T13:25:27.779Z,1.67
2019-03-25T13:27:56.685Z,1.67
2019-03-25T13:30:25.472Z,1.83
2019-03-25T13:32:54.255Z,1.80
2019-03-25T13:35:23.213Z,2.23
2019-03-25T13:37:51.888Z,1.70
2019-03-25T13:40:20.796Z,1.50
2019-03-25T13:42:49.581Z,1.60
2019-03-25T13:45:18.348Z,1.40
2019-03-25T13:47:47.049Z,2.30
2019-03-25T13:50:15.943Z,1.77
2019-03-25T13:52:44.853Z,2.23
2019-03-25T13:55:15.667Z,1.67
2019-03-25T13:57:44.451Z,2.10
2019-03-25T14:00:14.178Z,1.50
2019-03-25T14:02:43.149Z,1.30
2019-03-25T14:05:12.182Z,1.80
2019-03-25T14:07:40.937Z,1.67
2019-03-25T14:10:10.524Z,1.57
2019-03-25T14:12:39.480Z,1.77
2019-03-25T14:15:09.634Z,1.60
2019-03-25T14:17:38.520Z,1.60
2019-03-25T14:20:08.823Z,1.40
2019-03-25T14:22:37.661Z,1.50
2019-03-25T14:25:06.783Z,1.40
2019-03-25T14:27:35.784Z,1.33
2019-03-25T14:30:14.583Z,1.37
2019-03-25T14:32:37.467Z,1.50
2019-03-25T14:35:07.040Z,1.70
2019-03-25T14:37:35.893Z,1.60
2019-03-25T14:40:07.432Z,1.30
2019-03-25T14:42:36.420Z,1.60
2019-03-25T14:45:07.048Z,1.20
2019-03-25T14:47:35.824Z,1.70
2019-03-25T14:50:06.800Z,1.40
2019-03-25T14:52:35.541Z,1.40
2019-03-25T14:55:05.498Z,1.80
2019-03-25T14:57:34.306Z,1.30
2019-03-25T15:00:03.171Z,1.70
2019-03-25T15:02:31.946Z,1.60
2019-03-25T15:05:00.625Z,1.47
2019-03-25T15:07:48.729Z,1.50
2019-03-25T15:10:20.886Z,1.43
2019-03-25T15:12:49.619Z,1.40
2019-03-25T15:15:18.519Z,1.47
2019-03-25T15:17:47.249Z,1.50
2019-03-25T15:20:16.059Z,1.70
2019-03-25T15:22:44.846Z,1.53
2019-03-25T15:25:15.228Z,1.37
2019-03-25T15:27:44.053Z,1.37
2019-03-25T15:30:13.337Z,1.53
2019-03-25T15:32:42.160Z,1.47
2019-03-25T15:35:11.101Z,1.60
2019-03-25T15:37:40.006Z,1.77
2019-03-25T15:40:10.396Z,1.70
2019-03-25T15:42:39.059Z,1.43
2019-03-25T15:45:09.738Z,1.50
2019-03-25T15:47:39.159Z,1.47
2019-03-25T15:50:10.292Z,1.70
2019-03-25T15:52:39.324Z,1.30
2019-03-25T15:55:08.606Z,1.70
2019-03-25T15:57:39.560Z,1.23
2019-03-25T16:00:11.463Z,1.50
2019-03-25T16:02:40.558Z,1.40
2019-03-25T16:05:09.618Z,1.17
2019-03-25T16:07:38.377Z,1.30
2019-03-25T16:10:07.619Z,1.67
2019-03-25T16:12:36.350Z,1.73
2019-03-25T16:15:06.723Z,1.70
2019-03-25T16:17:35.473Z,1.63
2019-03-25T16:20:07.491Z,1.87
2019-03-25T16:22:36.262Z,1.70
2019-03-25T16:25:08.252Z,1.70
2019-03-25T16:27:38.469Z,1.50
2019-03-25T16:30:08.109Z,1.30
2019-03-25T16:32:36.763Z,1.20
2019-03-25T16:35:06.662Z,1.30
2019-03-25T16:37:35.369Z,1.50
2019-03-25T16:40:06.022Z,1.17
2019-03-25T16:42:34.906Z,1.30
2019-03-25T16:45:03.772Z,1.30
2019-03-25T16:47:32.474Z,1.30
2019-03-25T16:50:01.167Z,1.23
2019-03-25T16:52:29.960Z,1.20
2019-03-25T16:54:58.729Z,1.40
2019-03-25T16:57:27.537Z,1.27
2019-03-25T16:59:56.304Z,1.53
2019-03-25T17:02:25.143Z,1.40
2019-03-25T17:04:54.243Z,1.13
2019-03-25T17:07:22.964Z,1.47
2019-03-25T17:09:51.837Z,1.00
2019-03-25T17:12:20.779Z,1.00
2019-03-25T17:14:49.581Z,1.23
2019-03-25T17:17:18.318Z,1.23
2019-03-25T17:19:47.251Z,1.43
2019-03-25T17:22:16.007Z,1.50
2019-03-25T17:24:44.668Z,1.20
2019-03-25T17:27:13.533Z,1.30
2019-03-25T17:29:42.350Z,1.30
2019-03-25T17:32:11.140Z,1.20
2019-03-25T17:34:39.972Z,2.37
2019-03-25T17:37:28.056Z,1.37
2019-03-25T17:39:56.879Z,1.37
2019-03-25T17:42:25.753Z,1.27
2019-03-25T17:44:54.506Z,1.30
2019-03-25T17:47:23.317Z,1.23
2019-03-25T17:49:51.923Z,1.10
2019-03-25T17:52:20.612Z,1.13
2019-03-25T17:54:49.431Z,1.20
2019-03-25T17:57:18.105Z,1.20
2019-03-25T17:59:46.858Z,1.40
2019-03-25T18:02:15.792Z,1.10
2019-03-25T18:04:44.433Z,1.30
2019-03-25T18:07:13.384Z,1.20
2019-03-25T18:09:42.352Z,1.97
2019-03-25T18:12:11.260Z,1.50
2019-03-25T18:14:40.095Z,1.30
2019-03-25T18:17:08.971Z,1.10
2019-03-25T18:19:37.760Z,1.80
2019-03-25T18:22:06.640Z,1.43
2019-03-25T18:24:35.511Z,1.40
2019-03-25T18:27:04.198Z,1.07
2019-03-25T18:29:33.062Z,1.10
2019-03-25T18:32:01.675Z,1.20
2019-03-25T18:34:30.328Z,1.10
2019-03-25T18:36:59.034Z,1.50
2019-03-25T18:39:27.812Z,1.30
2019-03-25T18:41:59.581Z,1.10
2019-03-25T18:44:28.495Z,0.90
2019-03-25T18:46:57.255Z,1.13
2019-03-25T18:49:26.130Z,1.10
2019-03-25T18:51:55.002Z,1.30
2019-03-25T18:54:23.744Z,1.20
2019-03-25T18:56:52.404Z,1.23
2019-03-25T18:59:21.188Z,1.07
2019-03-25T19:01:54.738Z,1.13
2019-03-25T19:04:23.440Z,1.00
2019-03-25T19:06:52.279Z,0.90
2019-03-25T19:09:20.967Z,1.17
2019-03-25T19:11:49.653Z,1.10
2019-03-25T19:14:18.416Z,1.20
2019-03-25T19:16:47.129Z,1.20
2019-03-25T19:19:17.135Z,1.10
2019-03-25T19:21:45.888Z,1.10
2019-03-25T19:24:14.588Z,1.27
2019-03-25T19:26:43.347Z,1.17
2019-03-25T19:29:12.001Z,1.40
2019-03-25T19:31:40.710Z,1.20
2019-03-25T19:34:12.386Z,1.00
2019-03-25T19:36:41.088Z,0.97
2019-03-25T19:39:09.877Z,1.00
2019-03-25T19:41:38.594Z,1.17
2019-03-25T19:44:07.322Z,1.20
2019-03-25T19:46:36.027Z,1.20
2019-03-25T19:49:04.856Z,1.37
2019-03-25T19:51:34.476Z,1.10
2019-03-25T19:54:03.322Z,1.10
2019-03-25T19:56:32.098Z,1.00
2019-03-25T19:59:00.804Z,1.10
2019-03-25T20:01:29.548Z,1.20
2019-03-25T20:03:58.355Z,1.33
2019-03-25T20:06:27.067Z,1.10
2019-03-25T20:08:55.918Z,1.13
2019-03-25T20:11:24.669Z,1.23
2019-03-25T20:13:53.486Z,1.20
2019-03-25T20:16:22.266Z,1.30
2019-03-25T20:18:50.879Z,1.07
2019-03-25T20:21:19.623Z,1.00
2019-03-25T20:23:50.509Z,1.27
2019-03-25T20:26:18.963Z,1.17
2019-03-25T20:28:47.771Z,1.13
2019-03-25T20:31:16.714Z,1.20
2019-03-25T20:33:45.332Z,1.00
2019-03-25T20:36:14.083Z,1.20
2019-03-25T20:38:42.866Z,1.20
2019-03-25T20:41:11.645Z,1.30
2019-03-25T20:43:40.418Z,1.23
2019-03-25T20:46:09.147Z,1.10
2019-03-25T20:48:37.989Z,1.00
2019-03-25T20:51:06.701Z,1.30
2019-03-25T20:53:35.336Z,1.30
2019-03-25T20:56:04.044Z,1.17
2019-03-25T20:58:32.893Z,1.20
2019-03-25T21:01:01.615Z,1.10
2019-03-25T21:03:30.305Z,1.20
2019-03-25T21:05:59.022Z,1.00
2019-03-25T21:08:30.703Z,1.20
2019-03-25T21:11:02.295Z,1.10
2019-03-25T21:13:31.148Z,1.10
2019-03-25T21:15:59.817Z,1.27
2019-03-25T21:18:28.635Z,1.20
2019-03-25T21:20:57.503Z,1.17
2019-03-25T21:23:26.413Z,1.00
2019-03-25T21:25:55.175Z,1.10
2019-03-25T21:28:23.993Z,1.00
2019-03-25T21:30:52.822Z,1.10
2019-03-25T21:33:21.607Z,1.00
2019-03-25T21:35:50.379Z,1.03
2019-03-25T21:38:19.189Z,1.20
2019-03-25T21:40:47.904Z,1.07
2019-03-25T21:43:16.531Z,1.00
2019-03-25T21:45:45.210Z,1.07
2019-03-25T21:48:14.090Z,1.10
2019-03-25T21:50:42.853Z,1.10
2019-03-25T21:53:11.645Z,1.17
2019-03-25T21:55:40.383Z,1.20
2019-03-25T21:58:09.321Z,1.30
2019-03-25T22:00:37.949Z,0.93
2019-03-25T22:03:12.201Z,0.90
2019-03-25T22:05:37.045Z,1.03
2019-03-25T22:08:05.848Z,0.90
2019-03-25T22:10:34.664Z,0.93
2019-03-25T22:13:03.437Z,1.07
2019-03-25T22:15:32.013Z,1.10
2019-03-25T22:18:00.661Z,1.20
2019-03-25T22:20:33.676Z,1.00
2019-03-25T22:23:02.274Z,1.00
2019-03-25T22:25:30.907Z,1.17
2019-03-25T22:27:59.562Z,1.10
2019-03-25T22:30:28.193Z,1.13
2019-03-25T22:32:59.592Z,1.20
2019-03-25T22:35:28.524Z,1.00
2019-03-25T22:37:57.325Z,1.20
2019-03-25T22:40:26.009Z,1.10
2019-03-25T22:42:54.721Z,1.30
2019-03-25T22:45:30.181Z,1.10
2019-03-25T22:47:58.984Z,0.90
2019-03-25T22:50:29.481Z,1.27
2019-03-25T22:52:58.746Z,0.97
2019-03-25T22:55:27.816Z,1.13
2019-03-25T22:57:56.601Z,1.10
2019-03-25T23:00:27.023Z,0.90
2019-03-25T23:02:55.766Z,1.00
2019-03-25T23:05:24.472Z,1.00
2019-03-25T23:07:53.240Z,1.00
2019-03-25T23:10:21.994Z,0.90
2019-03-25T23:13:09.991Z,1.10
2019-03-25T23:15:38.631Z,1.10
2019-03-25T23:18:07.473Z,1.00
2019-03-25T23:20:36.126Z,1.00
2019-03-25T23:23:04.937Z,1.10
2019-03-25T23:25:33.623Z,1.20
2019-03-25T23:28:02.289Z,0.90
2019-03-25T23:30:30.897Z,0.90
2019-03-25T23:32:59.729Z,1.00
2019-03-25T23:35:28.487Z,1.00
2019-03-25T23:37:57.220Z,1.30
2019-03-25T23:40:25.982Z,1.10
2019-03-25T23:42:54.638Z,1.00
2019-03-25T23:45:23.301Z,1.10
2019-03-25T23:47:51.950Z,1.30
2019-03-25T23:50:23.122Z,1.10
2019-03-25T23:52:51.831Z,1.07
2019-03-25T23:55:22.003Z,1.00
2019-03-25T23:57:53.579Z,1.00
